Skip Navigation Links
NOAA logo - Click to go to the NOAA homepage
NOAA's National Weather Service
Alaska Aviation Weather Unit
  NWS logo - Click to go to the NWS homepage
Left Navbar Graphic     12 AKDT = 20 GMT

   
NOAA is celebrating 200 years of science, service, and stewardship. Visit the NOAA 200th celebration Web site to learn more.
USA.gov is the U.S. Government's official Web portal to all Federal, state and local government Web resources and services.
Facebook
NWS on Facebook

Important Change Regarding the AAWU Web Presence

 

Over the last several months, the AAWU has been working to navigate its webpages to a nationally supported server. Security, as well as other needs, have necessitated the change.  We have been given an extension for the site changeover while we diligently work at addressing feedback received. As of July 14, 2017, aawu.arh.noaa.gov will be discontinued. The new AAWU web address is weather.gov/aawu. It is now live and will run in-parallel with the old site until it is discontinued on July 14, 2017. Please continue to send any feedback or questions regarding the new webpages to nws.ar.aawu.webauthors@noaa.gov.  Thank you for your patience during this time of transition.
AAWU Home :: Display TAF Add Bookmark
METAR PATQ 251456Z AUTO 23005KT 10SM OVC090 06/05 A2994=

METAR PATQ 251556Z AUTO 24004KT 10SM OVC045 07/05 A2994=

METAR PATQ 251656Z AUTO 30004KT 10SM OVC045 07/05 A2994=

METAR PATQ 251756Z AUTO 00000KT 10SM CLR 08/05 A2994=

METAR PATQ 251856Z AUTO 28003KT 10SM CLR 09/05 A2995=

PATQ 251912Z AUTO VRB03KT 10SM BKN019 09/04 A2995=

SPECI PATQ 251919Z AUTO 31003KT 10SM SCT019 09/05 A2995 RMK AO2 TSNO=

METAR PATQ 251956Z AUTO 31004KT 10SM BKN023 09/04 A2995=


NOAA's National Weather Service
Alaska Aviation Weather Unit
6930 Sand Lake Road
Anchorage, AK 99502-1845
Disclaimer
Credits
Glossary
Privacy Policy
About Us
Career Opportunities
Contact AAWU Internet Services Site last modified: April, 17th 2012